createdAt,value
2019-05-13T00:01:25.115Z,10.34
2019-05-13T00:03:58.696Z,10.28
2019-05-13T00:06:50.296Z,10.14
2019-05-13T00:08:59.923Z,10.26
2019-05-13T00:11:30.326Z,10.23
2019-05-13T00:14:08.431Z,10.16
2019-05-13T00:16:46.677Z,10.12
2019-05-13T00:19:18.790Z,10.14
2019-05-13T00:21:48.129Z,10.09
2019-05-13T00:24:17.370Z,10.07
2019-05-13T00:26:46.455Z,10.11
2019-05-13T00:29:17.457Z,10.08
2019-05-13T00:31:49.091Z,10.14
2019-05-13T00:34:19.366Z,10.17
2019-05-13T00:36:48.590Z,10.24
2019-05-13T00:39:41.278Z,10.15
2019-05-13T00:42:14.214Z,10.30
2019-05-13T00:44:44.467Z,10.17
2019-05-13T00:47:14.468Z,10.05
2019-05-13T00:49:43.871Z,9.94
2019-05-13T00:52:14.319Z,9.72
2019-05-13T00:54:46.445Z,9.73
2019-05-13T00:57:15.701Z,9.75
2019-05-13T00:59:44.796Z,9.66
2019-05-13T01:02:14.062Z,9.51
2019-05-13T01:04:44.193Z,9.59
2019-05-13T01:07:25.266Z,9.55
2019-05-13T01:09:45.537Z,9.45
2019-05-13T01:12:14.586Z,9.46
2019-05-13T01:14:46.010Z,9.51
2019-05-13T01:17:15.496Z,9.64
2019-05-13T01:19:44.561Z,9.66
2019-05-13T01:22:13.901Z,9.78
2019-05-13T01:24:45.474Z,9.86
2019-05-13T01:27:14.590Z,9.66
2019-05-13T01:29:45.025Z,9.58
2019-05-13T01:32:15.018Z,7.82
2019-05-13T01:34:47.139Z,9.65
2019-05-13T01:37:23.366Z,9.59
2019-05-13T01:39:57.740Z,9.67
2019-05-13T01:42:26.845Z,9.63
2019-05-13T01:44:58.963Z,9.71
2019-05-13T01:47:27.999Z,9.69
2019-05-13T01:49:57.253Z,9.63
2019-05-13T01:52:26.475Z,9.60
2019-05-13T01:54:55.547Z,9.51
2019-05-13T01:57:24.607Z,9.48
2019-05-13T01:59:55.546Z,9.52
2019-05-13T02:02:25.671Z,9.44
2019-05-13T02:04:54.742Z,9.47
2019-05-13T02:07:24.864Z,9.42
2019-05-13T02:09:55.831Z,9.48
2019-05-13T02:12:27.114Z,9.59
2019-05-13T02:14:56.174Z,9.54
2019-05-13T02:17:26.300Z,9.61
2019-05-13T02:19:55.363Z,9.56
2019-05-13T02:22:29.433Z,7.48
2019-05-13T02:24:59.949Z,9.42
2019-05-13T02:27:29.038Z,9.38
2019-05-13T02:29:58.084Z,9.35
2019-05-13T02:32:27.143Z,9.34
2019-05-13T02:34:56.217Z,9.21
2019-05-13T02:37:29.195Z,9.35
2019-05-13T02:39:56.106Z,9.39
2019-05-13T02:42:25.155Z,9.39
2019-05-13T02:45:03.392Z,9.28
2019-05-13T02:47:33.654Z,9.39
2019-05-13T02:50:05.088Z,9.27
2019-05-13T02:52:33.702Z,9.25
2019-05-13T02:55:04.353Z,9.20
2019-05-13T02:57:33.516Z,9.19
2019-05-13T03:00:04.148Z,9.21
2019-05-13T03:02:33.885Z,9.33
2019-05-13T03:05:03.423Z,9.29
2019-05-13T03:07:34.289Z,0.88
2019-05-13T03:10:08.052Z,9.15
2019-05-13T03:12:37.183Z,9.22
2019-05-13T03:15:13.077Z,9.10
2019-05-13T03:18:06.255Z,9.04
2019-05-13T03:20:39.394Z,9.08
2019-05-13T03:23:08.489Z,9.04
2019-05-13T03:25:37.555Z,9.02
2019-05-13T03:28:06.869Z,8.53
2019-05-13T03:30:37.348Z,9.02
2019-05-13T03:33:10.872Z,9.06
2019-05-13T03:35:45.697Z,9.08
2019-05-13T03:38:13.026Z,9.19
2019-05-13T03:40:42.998Z,9.19
2019-05-13T03:43:13.000Z,9.16
2019-05-13T03:45:43.517Z,9.20
2019-05-13T03:48:17.350Z,9.14
2019-05-13T03:50:48.367Z,9.08
2019-05-13T03:53:17.477Z,9.10
2019-05-13T03:55:46.862Z,8.94
2019-05-13T03:58:16.058Z,8.87
2019-05-13T04:00:54.137Z,9.03
2019-05-13T04:03:26.144Z,9.02
2019-05-13T04:06:03.721Z,9.09
2019-05-13T04:08:33.110Z,9.10
2019-05-13T04:11:04.477Z,9.16
2019-05-13T04:13:38.096Z,9.19
2019-05-13T04:16:07.289Z,9.37
2019-05-13T04:18:36.354Z,9.74
2019-05-13T04:21:12.620Z,10.20
2019-05-13T04:23:42.340Z,11.49
2019-05-13T04:26:09.800Z,13.05
2019-05-13T04:28:44.132Z,13.21
2019-05-13T04:31:14.764Z,12.97
2019-05-13T04:33:49.236Z,12.47
2019-05-13T04:36:23.891Z,11.59
2019-05-13T04:39:03.346Z,11.17
2019-05-13T04:41:33.541Z,10.68
2019-05-13T04:44:04.056Z,10.31
2019-05-13T04:46:33.764Z,10.38
2019-05-13T04:49:03.889Z,10.44
2019-05-13T04:51:36.068Z,10.32
2019-05-13T04:54:05.211Z,10.13
2019-05-13T04:56:35.845Z,10.17
2019-05-13T04:59:05.854Z,10.09
2019-05-13T05:02:22.355Z,10.39
2019-05-13T05:05:22.622Z,10.62
2019-05-13T05:08:22.254Z,10.60
2019-05-13T05:11:34.603Z,10.63
2019-05-13T05:14:22.260Z,10.63
2019-05-13T05:17:17.397Z,10.55
2019-05-13T05:20:07.349Z,10.62
2019-05-13T05:22:58.491Z,10.60
2019-05-13T05:26:13.580Z,10.63
2019-05-13T05:29:23.892Z,10.77
2019-05-13T05:32:22.273Z,10.76
2019-05-13T05:35:36.976Z,10.59
2019-05-13T05:38:18.670Z,10.84
2019-05-13T05:40:52.160Z,11.33
2019-05-13T05:43:23.404Z,11.09
2019-05-13T05:45:54.157Z,11.53
2019-05-13T05:48:25.572Z,11.62
2019-05-13T05:50:56.333Z,11.40
2019-05-13T05:53:27.186Z,11.65
2019-05-13T05:55:59.461Z,11.66
2019-05-13T05:58:31.562Z,3.15
2019-05-13T06:01:06.656Z,11.29
2019-05-13T06:03:37.977Z,11.61
2019-05-13T06:06:11.739Z,11.67
2019-05-13T06:08:42.718Z,11.48
2019-05-13T06:11:12.067Z,11.24
2019-05-13T06:13:43.842Z,11.04
2019-05-13T06:16:13.150Z,11.22
2019-05-13T06:18:43.313Z,11.48
2019-05-13T06:21:13.729Z,11.18
2019-05-13T06:23:57.068Z,11.25
2019-05-13T06:26:26.126Z,11.45
2019-05-13T06:28:55.212Z,11.27
2019-05-13T06:31:25.721Z,11.33
2019-05-13T06:33:56.298Z,11.58
2019-05-13T06:36:25.357Z,11.27
2019-05-13T06:38:54.430Z,11.38
2019-05-13T06:41:26.413Z,11.18
2019-05-13T06:44:02.638Z,11.30
2019-05-13T06:46:32.404Z,11.26
2019-05-13T06:49:06.690Z,11.49
2019-05-13T06:51:35.775Z,11.37
2019-05-13T06:54:11.293Z,11.35
2019-05-13T06:56:35.955Z,11.08
2019-05-13T06:59:05.041Z,11.19
2019-05-13T07:01:38.417Z,11.36
2019-05-13T07:04:07.625Z,11.20
2019-05-13T07:06:41.819Z,11.05
2019-05-13T07:09:16.234Z,11.20
2019-05-13T07:11:45.307Z,11.46
2019-05-13T07:14:14.501Z,11.21
2019-05-13T07:16:43.742Z,11.06
2019-05-13T07:19:15.943Z,11.35
2019-05-13T07:21:45.341Z,11.48
2019-05-13T07:24:18.029Z,11.86
2019-05-13T07:26:52.304Z,12.05
2019-05-13T07:29:28.171Z,11.66
2019-05-13T07:32:08.359Z,11.79
2019-05-13T07:34:43.921Z,12.11
2019-05-13T07:37:11.523Z,12.58
2019-05-13T07:39:44.706Z,12.62
2019-05-13T07:42:16.314Z,12.47
2019-05-13T07:44:46.582Z,12.54
2019-05-13T07:47:17.412Z,12.33
2019-05-13T07:49:46.398Z,12.18
2019-05-13T07:52:16.562Z,12.20
2019-05-13T07:54:45.638Z,12.33
2019-05-13T07:57:16.336Z,12.33
2019-05-13T07:59:48.553Z,12.40
2019-05-13T08:02:17.599Z,12.24
2019-05-13T08:04:49.359Z,12.39
2019-05-13T08:07:23.824Z,12.62
2019-05-13T08:09:56.085Z,12.85
2019-05-13T08:12:23.936Z,12.76
2019-05-13T08:14:54.743Z,12.90
2019-05-13T08:17:28.701Z,12.88
2019-05-13T08:19:57.924Z,12.70
2019-05-13T08:22:27.259Z,13.19
2019-05-13T08:24:57.449Z,13.04
2019-05-13T08:27:30.760Z,12.85
2019-05-13T08:30:01.669Z,13.16
2019-05-13T08:32:31.530Z,13.27
2019-05-13T08:35:08.374Z,13.12
2019-05-13T08:37:34.695Z,13.08
2019-05-13T08:40:09.024Z,13.46
2019-05-13T08:42:41.513Z,13.36
2019-05-13T08:45:12.074Z,13.22
2019-05-13T08:47:55.704Z,13.44
2019-05-13T08:50:24.802Z,13.23
2019-05-13T08:52:53.889Z,13.53
2019-05-13T08:55:23.154Z,13.62
2019-05-13T08:57:55.170Z,13.16
2019-05-13T09:00:47.395Z,13.35
2019-05-13T09:03:16.503Z,13.29
2019-05-13T09:05:45.548Z,13.49
2019-05-13T09:08:15.997Z,13.18
2019-05-13T09:10:47.854Z,13.62
2019-05-13T09:13:17.938Z,13.88
2019-05-13T09:15:51.666Z,13.79
2019-05-13T09:18:22.960Z,13.69
2019-05-13T09:20:53.926Z,13.87
2019-05-13T09:23:27.556Z,13.69
2019-05-13T09:25:56.665Z,13.84
2019-05-13T09:28:25.784Z,13.67
2019-05-13T09:30:58.043Z,13.77
2019-05-13T09:33:28.512Z,14.50
2019-05-13T09:36:13.219Z,14.37
2019-05-13T09:38:42.159Z,13.89
2019-05-13T09:41:12.329Z,5.76
2019-05-13T09:43:44.265Z,12.14
2019-05-13T09:46:15.223Z,13.44
2019-05-13T09:48:48.037Z,13.75
2019-05-13T09:51:17.096Z,13.67
2019-05-13T09:53:49.193Z,13.98
2019-05-13T09:56:18.762Z,14.82
2019-05-13T09:58:51.369Z,14.62
2019-05-13T10:01:24.460Z,14.74
2019-05-13T10:03:58.102Z,14.37
2019-05-13T10:06:25.766Z,14.59
2019-05-13T10:08:57.759Z,14.22
2019-05-13T10:11:27.110Z,14.42
2019-05-13T10:13:58.016Z,14.55
2019-05-13T10:16:31.162Z,14.23
2019-05-13T10:18:58.149Z,14.43
2019-05-13T10:21:34.124Z,14.68
2019-05-13T10:24:03.202Z,14.31
2019-05-13T10:26:32.505Z,14.36
2019-05-13T10:29:01.653Z,14.06
2019-05-13T10:31:34.311Z,13.96
2019-05-13T10:34:03.403Z,14.00
2019-05-13T10:36:32.635Z,14.13
2019-05-13T10:39:01.814Z,14.51
2019-05-13T10:41:42.062Z,14.87
2019-05-13T10:44:12.103Z,15.07
2019-05-13T10:46:43.840Z,14.73
2019-05-13T10:49:12.950Z,14.50
2019-05-13T10:51:43.313Z,14.35
2019-05-13T10:54:16.991Z,14.61
2019-05-13T10:56:46.083Z,15.24
2019-05-13T10:59:15.253Z,15.50
2019-05-13T11:01:44.275Z,15.30
2019-05-13T11:04:14.448Z,14.98
2019-05-13T11:06:44.928Z,15.02
2019-05-13T11:09:18.525Z,15.88
2019-05-13T11:11:52.793Z,15.71
2019-05-13T11:14:22.178Z,14.89
2019-05-13T11:16:52.579Z,14.56
2019-05-13T11:19:23.024Z,15.49
2019-05-13T11:21:53.977Z,15.34
2019-05-13T11:24:23.237Z,15.50
2019-05-13T11:26:54.833Z,15.16
2019-05-13T11:29:25.620Z,15.22
2019-05-13T11:31:54.988Z,15.43
2019-05-13T11:34:32.623Z,14.78
2019-05-13T11:37:08.102Z,14.65
2019-05-13T11:39:38.514Z,15.18
2019-05-13T11:42:13.214Z,15.67
2019-05-13T11:44:44.988Z,15.55
2019-05-13T11:47:15.098Z,16.04
2019-05-13T11:49:51.338Z,16.28
2019-05-13T11:52:22.708Z,15.87
2019-05-13T11:55:01.787Z,16.15
2019-05-13T11:57:31.038Z,15.77
2019-05-13T12:00:06.483Z,16.23
2019-05-13T12:02:50.992Z,16.47
2019-05-13T12:05:22.764Z,15.58
2019-05-13T12:07:55.181Z,15.20
2019-05-13T12:10:28.895Z,15.86
2019-05-13T12:12:58.441Z,16.20
2019-05-13T12:15:44.542Z,16.86
2019-05-13T12:18:02.840Z,15.96
2019-05-13T12:20:38.586Z,15.53
2019-05-13T12:23:08.786Z,15.60
2019-05-13T12:25:42.897Z,16.23
2019-05-13T12:28:11.545Z,16.82
2019-05-13T12:30:43.844Z,16.58
2019-05-13T12:33:13.726Z,16.84
2019-05-13T12:35:42.815Z,16.25
2019-05-13T12:38:13.223Z,16.74
2019-05-13T12:40:43.961Z,16.59
2019-05-13T12:43:14.093Z,15.66
2019-05-13T12:45:43.841Z,15.84
2019-05-13T12:48:14.125Z,16.32
2019-05-13T12:50:43.748Z,16.67
2019-05-13T12:53:16.760Z,16.45
2019-05-13T12:55:55.751Z,16.39
2019-05-13T12:58:23.752Z,16.39
2019-05-13T13:00:57.221Z,16.79
2019-05-13T13:03:26.372Z,17.28
2019-05-13T13:06:20.973Z,16.33
2019-05-13T13:08:43.059Z,15.73
2019-05-13T13:11:03.071Z,15.52
2019-05-13T13:13:57.501Z,16.01
2019-05-13T13:16:12.454Z,16.83
2019-05-13T13:18:52.099Z,17.02
2019-05-13T13:21:33.648Z,17.32
2019-05-13T13:24:04.565Z,16.63
2019-05-13T13:26:33.912Z,15.82
2019-05-13T13:29:04.865Z,15.64
2019-05-13T13:31:36.770Z,15.85
2019-05-13T13:34:18.309Z,16.04
2019-05-13T13:36:47.686Z,16.08
2019-05-13T13:39:25.517Z,16.55
2019-05-13T13:42:05.454Z,16.08
2019-05-13T13:44:36.637Z,15.83
2019-05-13T13:47:07.790Z,16.41
2019-05-13T13:49:43.623Z,16.92
2019-05-13T13:52:16.119Z,16.33
2019-05-13T13:54:44.171Z,16.54
2019-05-13T13:57:25.671Z,16.01
2019-05-13T14:00:19.739Z,15.51
2019-05-13T14:02:37.301Z,15.77
2019-05-13T14:05:08.522Z,16.28
2019-05-13T14:07:39.005Z,16.92
2019-05-13T14:10:15.673Z,16.37
2019-05-13T14:12:45.111Z,17.01
2019-05-13T14:15:16.122Z,16.77
2019-05-13T14:17:46.597Z,16.75
2019-05-13T14:20:16.695Z,16.63
2019-05-13T14:22:46.637Z,16.91
2019-05-13T14:25:17.274Z,17.59
2019-05-13T14:27:54.414Z,17.51
2019-05-13T14:30:28.008Z,17.68
2019-05-13T14:32:57.058Z,17.78
2019-05-13T14:35:31.362Z,17.53
2019-05-13T14:38:02.508Z,17.00
2019-05-13T14:40:32.892Z,17.07
2019-05-13T14:43:03.734Z,17.06
2019-05-13T14:45:37.968Z,16.78
2019-05-13T14:48:07.030Z,17.05
2019-05-13T14:50:36.417Z,17.38
2019-05-13T14:53:07.267Z,17.42
2019-05-13T14:55:37.648Z,18.26
2019-05-13T14:58:07.762Z,17.36
2019-05-13T15:00:42.827Z,17.53
2019-05-13T15:03:13.022Z,17.41
2019-05-13T15:05:44.335Z,17.80
2019-05-13T15:08:13.810Z,17.93
2019-05-13T15:10:47.585Z,18.02
2019-05-13T15:13:16.720Z,17.60
2019-05-13T15:15:47.664Z,17.29
2019-05-13T15:18:18.723Z,17.34
2019-05-13T15:20:47.923Z,17.53
2019-05-13T15:23:18.635Z,16.63
2019-05-13T15:25:51.499Z,16.96
2019-05-13T15:28:23.070Z,16.91
2019-05-13T15:30:53.596Z,17.23
2019-05-13T15:33:25.876Z,17.64
2019-05-13T15:35:55.217Z,17.46
2019-05-13T15:38:24.298Z,17.08
2019-05-13T15:40:53.366Z,17.28
2019-05-13T15:43:22.527Z,17.07
2019-05-13T15:45:51.627Z,16.49
2019-05-13T15:48:22.643Z,16.91
2019-05-13T15:50:54.553Z,16.81
2019-05-13T15:53:23.772Z,16.69
2019-05-13T15:55:52.885Z,16.87
2019-05-13T15:58:38.074Z,17.05
2019-05-13T16:00:54.639Z,17.09
2019-05-13T16:03:28.934Z,17.26
2019-05-13T16:05:58.018Z,16.59
2019-05-13T16:08:27.348Z,16.69
2019-05-13T16:11:02.193Z,17.16
2019-05-13T16:13:31.802Z,17.13
2019-05-13T16:16:06.080Z,17.26
2019-05-13T16:18:35.207Z,17.37
2019-05-13T16:21:04.311Z,16.38
2019-05-13T16:23:33.382Z,16.81
2019-05-13T16:26:02.458Z,16.88
2019-05-13T16:28:32.520Z,17.07
2019-05-13T16:31:02.992Z,16.59
2019-05-13T16:33:32.176Z,16.53
2019-05-13T16:36:03.757Z,16.66
2019-05-13T16:38:33.178Z,16.25
2019-05-13T16:41:05.946Z,16.04
2019-05-13T16:43:36.780Z,16.24
2019-05-13T16:46:11.923Z,16.19
2019-05-13T16:48:43.126Z,16.25
2019-05-13T16:51:13.491Z,16.33
2019-05-13T16:53:46.869Z,16.62
2019-05-13T16:56:26.738Z,16.27
2019-05-13T16:58:52.028Z,16.44
2019-05-13T17:01:21.995Z,16.22
2019-05-13T17:04:02.391Z,16.10
2019-05-13T17:06:32.110Z,16.29
2019-05-13T17:09:11.503Z,16.38
2019-05-13T17:11:41.699Z,16.40
2019-05-13T17:14:10.695Z,16.47
2019-05-13T17:16:41.425Z,16.39
2019-05-13T17:19:18.711Z,16.09
2019-05-13T17:21:47.791Z,16.45
2019-05-13T17:24:16.928Z,15.97
2019-05-13T17:26:46.083Z,15.74
2019-05-13T17:29:15.383Z,15.60
2019-05-13T17:31:51.358Z,15.64
2019-05-13T17:34:21.180Z,15.42
2019-05-13T17:36:52.051Z,15.42
2019-05-13T17:39:21.404Z,15.37
2019-05-13T17:41:52.308Z,13.59
2019-05-13T17:44:21.937Z,15.32
2019-05-13T17:46:52.247Z,15.56
2019-05-13T17:49:22.226Z,15.63
2019-05-13T17:51:51.798Z,15.51
2019-05-13T17:54:22.544Z,15.52
2019-05-13T17:56:51.803Z,15.35
2019-05-13T17:59:21.890Z,15.11
2019-05-13T18:01:52.225Z,15.13
2019-05-13T18:04:22.699Z,15.24
2019-05-13T18:06:58.629Z,15.13
2019-05-13T18:09:31.882Z,15.32
2019-05-13T18:12:02.703Z,15.27
2019-05-13T18:14:37.469Z,15.27
2019-05-13T18:17:06.680Z,15.37
2019-05-13T18:19:37.789Z,15.29
2019-05-13T18:22:06.899Z,15.12
2019-05-13T18:24:37.810Z,15.08
2019-05-13T18:27:06.892Z,15.18
2019-05-13T18:29:35.960Z,14.88
2019-05-13T18:32:06.135Z,14.93
2019-05-13T18:34:37.111Z,14.81
2019-05-13T18:37:12.014Z,14.75
2019-05-13T18:39:46.812Z,14.76
2019-05-13T18:42:18.134Z,14.84
2019-05-13T18:44:48.607Z,14.82
2019-05-13T18:47:22.132Z,14.59
2019-05-13T18:49:52.559Z,14.69
2019-05-13T18:52:25.599Z,14.53
2019-05-13T18:54:57.524Z,14.36
2019-05-13T18:57:34.184Z,14.30
2019-05-13T19:00:03.400Z,14.38
2019-05-13T19:02:32.509Z,14.30
2019-05-13T19:05:01.994Z,14.34
2019-05-13T19:07:32.497Z,14.22
2019-05-13T19:10:03.402Z,14.12
2019-05-13T19:12:32.651Z,14.13
2019-05-13T19:15:02.550Z,14.12
2019-05-13T19:17:32.373Z,13.94
2019-05-13T19:20:04.596Z,13.87
2019-05-13T19:22:38.142Z,13.88
2019-05-13T19:25:11.879Z,13.87
2019-05-13T19:27:42.487Z,13.71
2019-05-13T19:30:14.207Z,13.47
2019-05-13T19:32:44.334Z,13.66
2019-05-13T19:35:13.470Z,13.67
2019-05-13T19:37:44.627Z,13.69
2019-05-13T19:40:13.796Z,13.60
2019-05-13T19:42:43.864Z,13.36
2019-05-13T19:45:15.900Z,13.43
2019-05-13T19:47:46.904Z,13.33
2019-05-13T19:50:17.519Z,13.27
2019-05-13T19:52:46.667Z,13.23
2019-05-13T19:55:15.778Z,13.29
2019-05-13T19:57:46.266Z,12.72
2019-05-13T20:00:15.822Z,13.22
2019-05-13T20:02:44.911Z,13.05
2019-05-13T20:05:14.003Z,12.99
2019-05-13T20:07:43.057Z,4.16
2019-05-13T20:10:13.080Z,13.10
2019-05-13T20:12:42.288Z,11.42
2019-05-13T20:15:14.267Z,13.28
2019-05-13T20:17:43.337Z,13.18
2019-05-13T20:20:12.820Z,13.25
2019-05-13T20:22:51.640Z,13.05
2019-05-13T20:25:25.448Z,13.03
2019-05-13T20:27:54.547Z,12.93
2019-05-13T20:30:23.696Z,12.89
2019-05-13T20:32:52.779Z,12.94
2019-05-13T20:35:23.123Z,12.77
2019-05-13T20:37:53.289Z,12.72
2019-05-13T20:40:22.335Z,12.87
2019-05-13T20:42:52.859Z,12.86
2019-05-13T20:45:22.535Z,12.89
2019-05-13T20:47:52.108Z,12.73
2019-05-13T20:50:21.684Z,12.64
2019-05-13T20:52:51.590Z,12.69
2019-05-13T20:55:24.131Z,12.61
2019-05-13T20:57:53.325Z,12.58
2019-05-13T21:00:22.373Z,3.84
2019-05-13T21:02:51.795Z,12.69
2019-05-13T21:05:22.782Z,12.61
2019-05-13T21:07:52.011Z,12.61
2019-05-13T21:10:21.355Z,12.73
2019-05-13T21:12:51.517Z,12.66
2019-05-13T21:15:21.064Z,12.61
2019-05-13T21:17:51.572Z,12.49
2019-05-13T21:20:36.091Z,12.68
2019-05-13T21:23:11.418Z,12.62
2019-05-13T21:25:41.870Z,12.74
2019-05-13T21:28:11.492Z,12.85
2019-05-13T21:30:42.571Z,12.89
2019-05-13T21:33:17.692Z,12.94
2019-05-13T21:35:48.524Z,12.94
2019-05-13T21:38:18.675Z,13.07
2019-05-13T21:40:52.354Z,13.00
2019-05-13T21:43:21.744Z,13.12
2019-05-13T21:45:52.268Z,13.23
2019-05-13T21:48:21.862Z,13.19
2019-05-13T21:50:52.085Z,13.09
2019-05-13T21:53:24.277Z,12.97
2019-05-13T21:55:56.698Z,12.76
2019-05-13T21:58:25.761Z,12.62
2019-05-13T22:00:56.587Z,12.63
2019-05-13T22:03:26.494Z,12.50
2019-05-13T22:05:58.502Z,12.39
2019-05-13T22:08:27.573Z,12.31
2019-05-13T22:10:57.071Z,10.40
2019-05-13T22:13:26.147Z,12.33
2019-05-13T22:18:57.739Z,12.08
2019-05-13T22:21:26.806Z,12.08
2019-05-13T22:23:58.795Z,12.14
2019-05-13T22:26:31.078Z,12.09
2019-05-13T22:29:02.828Z,12.00
2019-05-13T22:31:37.844Z,11.98
2019-05-13T22:34:07.994Z,11.85
2019-05-13T22:36:37.166Z,11.92
2019-05-13T22:39:07.289Z,11.83
2019-05-13T22:41:37.872Z,12.00
2019-05-13T22:44:08.275Z,12.02
2019-05-13T22:46:37.320Z,12.09
2019-05-13T22:49:06.436Z,12.08
2019-05-13T22:51:37.232Z,12.17
2019-05-13T22:54:06.267Z,12.26
2019-05-13T22:56:35.316Z,12.34
2019-05-13T22:59:05.384Z,12.30
2019-05-13T23:01:34.486Z,12.30
2019-05-13T23:04:05.915Z,12.45
2019-05-13T23:06:41.565Z,12.35
2019-05-13T23:09:12.525Z,12.29
2019-05-13T23:11:41.871Z,12.37
2019-05-13T23:14:13.435Z,12.40
2019-05-13T23:16:44.546Z,12.36
2019-05-13T23:19:17.424Z,12.36
2019-05-13T23:21:51.005Z,12.52
2019-05-13T23:24:24.582Z,12.45
2019-05-13T23:26:55.438Z,12.59
2019-05-13T23:29:28.127Z,12.54
2019-05-13T23:31:57.221Z,12.13
2019-05-13T23:34:28.151Z,12.50
2019-05-13T23:37:03.276Z,12.66
2019-05-13T23:39:32.402Z,12.62
2019-05-13T23:42:01.567Z,12.47
2019-05-13T23:44:32.414Z,12.40
2019-05-13T23:47:01.482Z,12.27
2019-05-13T23:49:33.592Z,12.24
2019-05-13T23:52:02.706Z,12.25
2019-05-13T23:54:31.764Z,12.26
2019-05-13T23:57:01.249Z,12.10
2019-05-13T23:59:31.384Z,12.26
